createdAt,value
2019-03-27T00:02:20.970Z,47.63
2019-03-27T00:04:51.197Z,44.73
2019-03-27T00:07:21.407Z,44.07
2019-03-27T00:09:51.539Z,46.77
2019-03-27T00:12:22.065Z,49.67
2019-03-27T00:14:52.687Z,45.73
2019-03-27T00:17:22.512Z,50.60
2019-03-27T00:19:53.307Z,52.27
2019-03-27T00:22:23.043Z,47.27
2019-03-27T00:24:54.953Z,50.80
2019-03-27T00:27:24.842Z,49.30
2019-03-27T00:29:55.051Z,50.23
2019-03-27T00:32:25.213Z,59.80
2019-03-27T00:34:55.107Z,50.77
2019-03-27T00:37:25.554Z,56.73
2019-03-27T00:39:55.333Z,52.93
2019-03-27T00:42:25.897Z,53.23
2019-03-27T00:44:55.687Z,53.27
2019-03-27T00:47:25.829Z,58.63
2019-03-27T00:49:55.565Z,54.03
2019-03-27T00:52:25.329Z,56.93
2019-03-27T00:54:55.507Z,54.57
2019-03-27T00:57:25.623Z,54.40
2019-03-27T00:59:55.844Z,59.63
2019-03-27T01:02:25.742Z,51.60
2019-03-27T01:04:56.268Z,50.00
2019-03-27T01:07:26.405Z,51.73
2019-03-27T01:09:56.115Z,53.27
2019-03-27T01:12:26.523Z,50.83
2019-03-27T01:14:57.051Z,50.23
2019-03-27T01:17:27.171Z,53.07
2019-03-27T01:19:57.239Z,55.63
2019-03-27T01:22:27.045Z,47.17
2019-03-27T01:24:57.300Z,46.83
2019-03-27T01:27:27.513Z,50.33
2019-03-27T01:29:57.559Z,61.67
2019-03-27T01:32:27.279Z,50.73
2019-03-27T01:34:57.449Z,53.00
2019-03-27T01:37:28.011Z,53.40
2019-03-27T01:39:58.265Z,54.00
2019-03-27T01:42:28.517Z,59.20
2019-03-27T01:44:59.141Z,51.77
2019-03-27T01:47:29.031Z,58.20
2019-03-27T01:50:00.821Z,53.90
2019-03-27T01:52:31.083Z,56.53
2019-03-27T01:55:02.793Z,60.03
2019-03-27T01:57:32.957Z,60.80
2019-03-27T02:00:06.904Z,67.87
2019-03-27T02:02:38.041Z,59.63
2019-03-27T02:05:08.689Z,56.03
2019-03-27T02:07:38.594Z,53.87
2019-03-27T02:10:09.901Z,54.87
2019-03-27T02:12:39.687Z,53.57
2019-03-27T02:15:10.365Z,62.10
2019-03-27T02:17:40.556Z,55.90
2019-03-27T02:20:11.135Z,54.10
2019-03-27T02:22:41.263Z,57.50
2019-03-27T02:25:11.237Z,58.30
2019-03-27T02:27:41.447Z,55.80
2019-03-27T02:30:11.561Z,55.33
2019-03-27T02:32:41.385Z,59.23
2019-03-27T02:35:12.793Z,57.77
2019-03-27T02:37:42.583Z,66.77
2019-03-27T02:40:12.520Z,55.03
2019-03-27T02:42:42.928Z,57.83
2019-03-27T02:45:13.669Z,61.93
2019-03-27T02:47:44.419Z,52.87
2019-03-27T02:50:14.568Z,56.33
2019-03-27T02:52:44.823Z,54.13
2019-03-27T02:55:15.117Z,51.80
2019-03-27T02:57:44.995Z,62.50
2019-03-27T03:00:16.614Z,62.43
2019-03-27T03:02:47.091Z,56.17
2019-03-27T03:05:17.010Z,65.67
2019-03-27T03:07:47.813Z,53.20
2019-03-27T03:10:18.762Z,51.73
2019-03-27T03:12:48.996Z,58.57
2019-03-27T03:15:23.497Z,59.80
2019-03-27T03:17:53.287Z,55.67
2019-03-27T03:20:23.564Z,57.50
2019-03-27T03:22:53.283Z,53.20
2019-03-27T03:25:23.376Z,54.73
2019-03-27T03:27:53.644Z,54.80
2019-03-27T03:30:23.550Z,54.37
2019-03-27T03:32:53.790Z,57.27
2019-03-27T03:35:24.031Z,53.93
2019-03-27T03:37:54.997Z,53.87
2019-03-27T03:40:24.802Z,56.07
2019-03-27T03:42:55.082Z,56.87
2019-03-27T03:45:25.255Z,53.50
2019-03-27T03:47:55.338Z,54.07
2019-03-27T03:50:42.355Z,58.03
2019-03-27T03:53:14.617Z,53.93
2019-03-27T03:55:45.196Z,55.10
2019-03-27T03:58:17.233Z,59.07
2019-03-27T04:00:47.346Z,52.67
2019-03-27T04:03:17.188Z,60.27
2019-03-27T04:05:47.056Z,50.60
2019-03-27T04:08:17.642Z,59.83
2019-03-27T04:10:47.373Z,61.67
2019-03-27T04:13:17.935Z,58.20
2019-03-27T04:15:47.824Z,58.13
2019-03-27T04:18:17.690Z,61.17
2019-03-27T04:20:47.567Z,54.63
2019-03-27T04:23:17.731Z,64.17
2019-03-27T04:26:08.454Z,59.53
2019-03-27T04:28:19.741Z,61.20
2019-03-27T04:30:49.564Z,60.30
2019-03-27T04:33:19.367Z,56.30
2019-03-27T04:35:49.235Z,59.30
2019-03-27T04:38:19.437Z,61.30
2019-03-27T04:40:49.223Z,60.50
2019-03-27T04:43:19.549Z,65.77
2019-03-27T04:45:49.611Z,60.23
2019-03-27T04:48:20.140Z,70.07
2019-03-27T04:50:49.921Z,68.20
2019-03-27T04:53:19.799Z,70.60
2019-03-27T04:55:49.569Z,63.57
2019-03-27T04:58:19.948Z,65.30
2019-03-27T05:00:50.058Z,64.37
2019-03-27T05:03:20.256Z,66.87
2019-03-27T05:05:49.927Z,67.00
2019-03-27T05:08:19.662Z,65.93
2019-03-27T05:10:50.286Z,65.20
2019-03-27T05:13:21.101Z,64.27
2019-03-27T05:15:50.803Z,63.37
2019-03-27T05:18:20.586Z,65.83
2019-03-27T05:20:51.177Z,63.13
2019-03-27T05:23:20.915Z,66.30
2019-03-27T05:25:50.687Z,69.47
2019-03-27T05:28:20.398Z,64.63
2019-03-27T05:30:50.122Z,64.70
2019-03-27T05:33:20.357Z,71.03
2019-03-27T05:35:50.084Z,62.97
2019-03-27T05:38:19.802Z,56.87
2019-03-27T05:40:49.513Z,63.37
2019-03-27T05:43:19.622Z,72.37
2019-03-27T05:45:49.789Z,53.67
2019-03-27T05:48:19.566Z,59.33
2019-03-27T05:50:49.274Z,61.90
2019-03-27T05:53:18.983Z,72.73
2019-03-27T05:55:48.669Z,63.87
2019-03-27T05:58:18.777Z,65.10
2019-03-27T06:00:48.537Z,72.20
2019-03-27T06:03:18.253Z,68.53
2019-03-27T06:05:47.975Z,73.83
2019-03-27T06:08:20.020Z,70.03
2019-03-27T06:10:49.776Z,65.87
2019-03-27T06:13:19.993Z,63.07
2019-03-27T06:15:50.041Z,71.63
2019-03-27T06:18:20.469Z,70.90
2019-03-27T06:20:50.311Z,66.10
2019-03-27T06:23:21.010Z,62.20
2019-03-27T06:25:50.715Z,82.57
2019-03-27T06:28:21.145Z,80.97
2019-03-27T06:30:51.034Z,122.00
2019-03-27T06:33:21.159Z,88.10
2019-03-27T06:35:50.871Z,85.20
2019-03-27T06:38:20.704Z,79.50
2019-03-27T06:40:50.812Z,83.50
2019-03-27T06:43:20.590Z,77.50
2019-03-27T06:45:50.634Z,89.40
2019-03-27T06:48:26.379Z,63.83
2019-03-27T06:50:52.714Z,66.50
2019-03-27T06:53:22.898Z,67.97
2019-03-27T06:55:52.590Z,76.83
2019-03-27T06:58:22.632Z,70.57
2019-03-27T07:00:52.352Z,68.90
2019-03-27T07:03:22.659Z,70.97
2019-03-27T07:05:52.462Z,63.07
2019-03-27T07:08:22.262Z,71.20
2019-03-27T07:10:52.046Z,80.50
2019-03-27T07:13:22.200Z,62.97
2019-03-27T07:15:51.908Z,60.10
2019-03-27T07:18:21.954Z,73.10
2019-03-27T07:20:52.078Z,62.43
2019-03-27T07:23:21.898Z,71.90
2019-03-27T07:25:52.013Z,67.57
2019-03-27T07:28:22.134Z,70.83
2019-03-27T07:30:52.260Z,76.47
2019-03-27T07:33:22.305Z,63.43
2019-03-27T07:35:52.126Z,70.67
2019-03-27T07:38:21.943Z,65.37
2019-03-27T07:40:52.008Z,80.70
2019-03-27T07:43:21.784Z,79.57
2019-03-27T07:45:51.592Z,63.90
2019-03-27T07:48:22.060Z,77.57
2019-03-27T07:50:52.224Z,62.17
2019-03-27T07:53:22.728Z,70.37
2019-03-27T07:55:52.900Z,57.33
2019-03-27T07:58:22.616Z,64.03
2019-03-27T08:00:52.432Z,66.13
2019-03-27T08:03:22.255Z,57.50
2019-03-27T08:05:52.090Z,76.43
2019-03-27T08:08:21.846Z,71.80
2019-03-27T08:10:52.011Z,58.70
2019-03-27T08:13:21.857Z,59.47
2019-03-27T08:15:52.249Z,62.50
2019-03-27T08:18:22.366Z,62.97
2019-03-27T08:20:52.222Z,52.27
2019-03-27T08:23:22.271Z,52.43
2019-03-27T08:25:52.000Z,49.27
2019-03-27T08:28:21.891Z,50.40
2019-03-27T08:30:51.921Z,43.47
2019-03-27T08:33:21.657Z,44.13
2019-03-27T08:35:51.790Z,50.43
2019-03-27T08:38:22.360Z,32.57
2019-03-27T08:40:52.077Z,44.50
2019-03-27T08:43:25.380Z,38.87
2019-03-27T08:45:54.296Z,34.23
2019-03-27T08:48:24.037Z,40.90
2019-03-27T08:50:53.893Z,41.20
2019-03-27T08:53:23.949Z,57.90
2019-03-27T08:55:54.097Z,50.40
2019-03-27T08:58:24.524Z,54.07
2019-03-27T09:00:55.380Z,45.00
2019-03-27T09:03:25.090Z,34.57
2019-03-27T09:05:55.270Z,29.53
2019-03-27T09:08:26.215Z,16.07
2019-03-27T09:10:56.681Z,16.23
2019-03-27T09:13:27.165Z,10.80
2019-03-27T09:15:56.935Z,15.03
2019-03-27T09:18:27.006Z,11.50
2019-03-27T09:20:57.705Z,15.17
2019-03-27T09:23:27.894Z,14.63
2019-03-27T09:25:57.679Z,14.60
2019-03-27T09:28:27.581Z,15.40
2019-03-27T09:30:57.272Z,14.40
2019-03-27T09:33:27.065Z,15.63
2019-03-27T09:35:57.154Z,13.97
2019-03-27T09:38:27.978Z,20.17
2019-03-27T09:40:58.607Z,39.47
2019-03-27T09:43:28.488Z,32.00
2019-03-27T09:45:58.685Z,29.03
2019-03-27T09:48:29.522Z,34.57
2019-03-27T09:50:59.740Z,44.03
2019-03-27T09:53:29.450Z,36.17
2019-03-27T09:56:00.098Z,35.43
2019-03-27T09:58:29.943Z,21.37
2019-03-27T10:01:04.977Z,25.03
2019-03-27T10:03:34.759Z,25.27
2019-03-27T10:06:04.518Z,17.50
2019-03-27T10:08:34.620Z,20.23
2019-03-27T10:11:04.445Z,19.10
2019-03-27T10:13:34.725Z,24.27
2019-03-27T10:16:04.779Z,19.77
2019-03-27T10:18:34.545Z,22.70
2019-03-27T10:21:04.709Z,25.90
2019-03-27T10:23:34.805Z,29.50
2019-03-27T10:26:05.240Z,28.70
2019-03-27T10:28:35.412Z,28.27
2019-03-27T10:31:05.204Z,16.70
2019-03-27T10:33:35.036Z,20.40
2019-03-27T10:36:05.087Z,17.87
2019-03-27T10:38:35.599Z,15.27
2019-03-27T10:41:07.416Z,18.57
2019-03-27T10:43:37.496Z,18.13
2019-03-27T10:46:07.494Z,23.23
2019-03-27T10:48:51.428Z,21.47
2019-03-27T10:51:09.156Z,22.33
2019-03-27T10:53:38.905Z,26.37
2019-03-27T10:56:08.627Z,23.53
2019-03-27T10:58:38.371Z,29.80
2019-03-27T11:01:08.096Z,25.63
2019-03-27T11:03:38.693Z,27.33
2019-03-27T11:06:08.889Z,26.37
2019-03-27T11:08:38.702Z,23.40
2019-03-27T11:11:08.512Z,19.77
2019-03-27T11:13:38.330Z,19.17
2019-03-27T11:16:08.111Z,16.93
2019-03-27T11:18:37.936Z,26.07
2019-03-27T11:21:08.054Z,23.57
2019-03-27T11:23:37.784Z,22.87
2019-03-27T11:26:08.280Z,19.40
2019-03-27T11:28:39.042Z,20.57
2019-03-27T11:31:09.302Z,23.17
2019-03-27T11:33:39.751Z,18.57
2019-03-27T11:36:10.208Z,20.63
2019-03-27T11:38:40.906Z,19.43
2019-03-27T11:41:12.412Z,21.50
2019-03-27T11:43:54.257Z,19.13
2019-03-27T11:46:14.088Z,19.80
2019-03-27T11:48:43.862Z,22.17
2019-03-27T11:51:13.615Z,22.67
2019-03-27T11:53:43.372Z,18.73
2019-03-27T11:56:13.798Z,22.30
2019-03-27T11:58:43.581Z,22.90
2019-03-27T12:01:13.329Z,18.80
2019-03-27T12:03:43.109Z,22.50
2019-03-27T12:06:13.209Z,21.03
2019-03-27T12:08:42.934Z,22.67
2019-03-27T12:11:12.640Z,17.57
2019-03-27T12:13:42.986Z,21.23
2019-03-27T12:16:12.700Z,18.27
2019-03-27T12:18:42.422Z,17.57
2019-03-27T12:21:12.508Z,21.87
2019-03-27T12:23:42.320Z,18.63
2019-03-27T12:26:12.050Z,16.03
2019-03-27T12:28:41.830Z,17.63
2019-03-27T12:31:11.611Z,19.97
2019-03-27T12:33:41.862Z,21.23
2019-03-27T12:36:12.791Z,20.70
2019-03-27T12:38:42.640Z,19.73
2019-03-27T12:41:12.941Z,19.73
2019-03-27T12:43:43.558Z,20.60
2019-03-27T12:46:13.594Z,26.83
2019-03-27T12:48:43.299Z,20.27
2019-03-27T12:51:13.511Z,22.50
2019-03-27T12:53:43.583Z,16.60
2019-03-27T12:56:13.970Z,21.53
2019-03-27T12:58:43.684Z,22.97
2019-03-27T13:01:13.943Z,20.87
2019-03-27T13:03:44.616Z,20.93
2019-03-27T13:06:14.901Z,18.97
2019-03-27T13:08:44.978Z,16.37
2019-03-27T13:11:15.716Z,19.90
2019-03-27T13:13:45.722Z,20.70
2019-03-27T13:16:15.842Z,17.03
2019-03-27T13:18:45.914Z,25.27
2019-03-27T13:21:25.712Z,21.97
2019-03-27T13:23:47.288Z,23.33
2019-03-27T13:26:17.112Z,21.73
2019-03-27T13:28:49.056Z,23.37
2019-03-27T13:31:19.503Z,23.50
2019-03-27T13:33:50.465Z,24.97
2019-03-27T13:36:20.837Z,21.80
2019-03-27T13:38:50.590Z,24.63
2019-03-27T13:41:20.767Z,22.80
2019-03-27T13:43:51.242Z,18.23
2019-03-27T13:46:22.825Z,18.90
2019-03-27T13:48:52.967Z,18.20
2019-03-27T13:51:23.137Z,19.03
2019-03-27T13:53:52.879Z,20.10
2019-03-27T13:56:22.694Z,18.67
2019-03-27T13:58:52.475Z,21.03
2019-03-27T14:01:23.416Z,19.23
2019-03-27T14:03:53.689Z,21.67
2019-03-27T14:06:23.509Z,24.37
2019-03-27T14:08:53.646Z,20.07
2019-03-27T14:11:23.410Z,22.97
2019-03-27T14:13:53.222Z,26.87
2019-03-27T14:16:23.469Z,20.67
2019-03-27T14:18:53.655Z,21.40
2019-03-27T14:21:23.572Z,25.97
2019-03-27T14:23:53.734Z,18.97
2019-03-27T14:26:23.941Z,18.37
2019-03-27T14:28:53.777Z,23.63
2019-03-27T14:31:24.074Z,20.60
2019-03-27T14:33:53.784Z,21.67
2019-03-27T14:36:24.861Z,21.07
2019-03-27T14:38:54.661Z,24.40
2019-03-27T14:41:25.257Z,22.63
2019-03-27T14:43:55.000Z,26.23
2019-03-27T14:46:25.083Z,22.67
2019-03-27T14:48:54.901Z,22.83
2019-03-27T14:51:24.789Z,27.27
2019-03-27T14:53:54.935Z,26.30
2019-03-27T14:56:24.761Z,26.40
2019-03-27T14:58:58.042Z,25.73
2019-03-27T15:01:28.471Z,21.77
2019-03-27T15:03:58.268Z,22.27
2019-03-27T15:06:29.733Z,24.80
2019-03-27T15:08:59.726Z,22.17
2019-03-27T15:11:29.960Z,27.40
2019-03-27T15:13:59.705Z,22.53
2019-03-27T15:16:29.410Z,27.40
2019-03-27T15:18:59.229Z,30.20
2019-03-27T15:21:29.678Z,24.63
2019-03-27T15:23:59.836Z,22.70
2019-03-27T15:26:30.313Z,23.27
2019-03-27T15:29:00.055Z,29.07
2019-03-27T15:31:30.328Z,19.57
2019-03-27T15:34:00.884Z,24.33
2019-03-27T15:36:31.047Z,23.63
2019-03-27T15:39:01.230Z,27.70
2019-03-27T15:41:30.940Z,26.33
2019-03-27T15:44:01.327Z,36.20
2019-03-27T15:46:31.492Z,26.37
2019-03-27T15:49:01.345Z,28.73
2019-03-27T15:51:31.488Z,26.10
2019-03-27T15:54:01.661Z,26.77
2019-03-27T15:56:31.863Z,31.27
2019-03-27T15:59:02.543Z,28.27
2019-03-27T16:01:33.301Z,25.53
2019-03-27T16:04:03.489Z,28.87
2019-03-27T16:06:33.284Z,30.40
2019-03-27T16:09:04.286Z,31.80
2019-03-27T16:11:34.178Z,25.10
2019-03-27T16:14:04.324Z,27.70
2019-03-27T16:16:34.689Z,25.17
2019-03-27T16:19:04.504Z,29.87
2019-03-27T16:21:37.453Z,31.10
2019-03-27T16:24:06.927Z,28.00
2019-03-27T16:26:38.334Z,29.97
2019-03-27T16:29:08.227Z,30.60
2019-03-27T16:31:38.536Z,27.00
2019-03-27T16:34:08.620Z,26.00
2019-03-27T16:36:38.438Z,26.63
2019-03-27T16:39:09.162Z,25.67
2019-03-27T16:41:39.493Z,30.73
2019-03-27T16:44:10.684Z,30.10
2019-03-27T16:46:40.987Z,29.23
2019-03-27T16:49:11.143Z,37.10
2019-03-27T16:51:41.205Z,33.47
2019-03-27T16:54:10.990Z,32.00
2019-03-27T16:56:40.780Z,31.67
2019-03-27T16:59:10.859Z,29.90
2019-03-27T17:01:41.074Z,30.97
2019-03-27T17:04:11.171Z,34.63
2019-03-27T17:06:41.230Z,28.97
2019-03-27T17:09:11.042Z,27.03
2019-03-27T17:11:41.168Z,23.93
2019-03-27T17:14:11.012Z,27.20
2019-03-27T17:16:41.053Z,29.97
2019-03-27T17:19:11.478Z,27.00
2019-03-27T17:21:41.203Z,34.50
2019-03-27T17:24:11.444Z,28.27
2019-03-27T17:26:41.239Z,24.37
2019-03-27T17:29:11.843Z,26.97
2019-03-27T17:32:13.588Z,27.33
2019-03-27T17:35:31.424Z,30.07
2019-03-27T17:38:01.295Z,25.93
2019-03-27T17:40:31.218Z,25.83
2019-03-27T17:43:01.322Z,24.80
2019-03-27T17:45:31.318Z,28.77
2019-03-27T17:48:01.311Z,25.10
2019-03-27T17:50:31.151Z,27.43
2019-03-27T17:53:01.079Z,28.70
2019-03-27T17:55:31.115Z,27.50
2019-03-27T17:58:00.966Z,27.27
2019-03-27T18:00:52.885Z,26.60
2019-03-27T18:03:22.664Z,32.23
2019-03-27T18:05:53.314Z,34.53
2019-03-27T18:08:24.735Z,28.10
2019-03-27T18:10:54.840Z,34.27
2019-03-27T18:13:24.860Z,28.97
2019-03-27T18:15:56.386Z,37.80
2019-03-27T18:18:26.553Z,30.30
2019-03-27T18:20:56.820Z,32.03
2019-03-27T18:23:27.046Z,37.47
2019-03-27T18:25:57.570Z,35.77
2019-03-27T18:28:27.683Z,36.13
2019-03-27T18:30:57.390Z,39.17
2019-03-27T18:33:28.144Z,42.40
2019-03-27T18:35:58.679Z,38.37
2019-03-27T18:38:28.834Z,37.20
2019-03-27T18:40:58.922Z,33.40
2019-03-27T18:43:28.639Z,35.90
2019-03-27T18:45:58.455Z,37.37
2019-03-27T18:48:29.053Z,35.10
2019-03-27T18:50:58.751Z,39.20
2019-03-27T18:53:28.475Z,38.27
2019-03-27T18:55:58.525Z,41.73
2019-03-27T18:58:28.745Z,39.93
2019-03-27T19:00:59.279Z,39.30
2019-03-27T19:03:29.002Z,34.30
2019-03-27T19:05:58.825Z,44.30
2019-03-27T19:08:29.873Z,38.17
2019-03-27T19:11:00.108Z,38.40
2019-03-27T19:13:30.395Z,37.57
2019-03-27T19:16:00.977Z,45.70
2019-03-27T19:18:31.092Z,36.07
2019-03-27T19:21:01.326Z,35.90
2019-03-27T19:23:31.042Z,44.17
2019-03-27T19:26:01.151Z,44.73
2019-03-27T19:28:31.726Z,43.47
2019-03-27T19:31:01.935Z,42.50
2019-03-27T19:33:32.093Z,40.97
2019-03-27T19:36:02.614Z,50.70
2019-03-27T19:38:32.336Z,41.57
2019-03-27T19:41:02.907Z,45.30
2019-03-27T19:43:32.804Z,42.07
2019-03-27T19:46:02.581Z,44.10
2019-03-27T19:48:32.648Z,45.47
2019-03-27T19:51:02.809Z,41.47
2019-03-27T19:53:33.495Z,47.97
2019-03-27T19:56:03.610Z,42.87
2019-03-27T19:58:33.516Z,49.37
2019-03-27T20:01:04.158Z,51.23
2019-03-27T20:03:34.965Z,49.83
2019-03-27T20:06:05.150Z,45.50
2019-03-27T20:08:35.571Z,51.53
2019-03-27T20:11:05.889Z,52.80
2019-03-27T20:13:35.600Z,53.73
2019-03-27T20:16:05.417Z,52.87
2019-03-27T20:18:35.479Z,50.87
2019-03-27T20:21:05.206Z,51.90
2019-03-27T20:23:35.626Z,50.97
2019-03-27T20:26:06.048Z,56.97
2019-03-27T20:28:35.948Z,52.60
2019-03-27T20:31:06.132Z,55.60
2019-03-27T20:33:38.289Z,54.47
2019-03-27T20:36:08.464Z,52.10
2019-03-27T20:38:39.004Z,64.20
2019-03-27T20:41:09.134Z,55.83
2019-03-27T20:43:39.732Z,49.77
2019-03-27T20:46:09.793Z,51.37
2019-03-27T20:48:42.566Z,51.90
2019-03-27T20:51:11.943Z,48.20
2019-03-27T20:53:41.728Z,55.27
2019-03-27T20:56:11.478Z,58.67
2019-03-27T20:58:41.550Z,56.77
2019-03-27T21:01:11.460Z,68.93
2019-03-27T21:03:41.922Z,54.33
2019-03-27T21:06:11.656Z,54.53
2019-03-27T21:08:41.817Z,60.43
2019-03-27T21:11:12.008Z,54.43
2019-03-27T21:13:42.154Z,57.43
2019-03-27T21:16:12.815Z,62.57
2019-03-27T21:18:42.527Z,62.77
2019-03-27T21:21:12.336Z,63.73
2019-03-27T21:23:42.051Z,54.33
2019-03-27T21:26:12.176Z,59.63
2019-03-27T21:28:42.563Z,55.97
2019-03-27T21:31:12.351Z,56.23
2019-03-27T21:33:42.967Z,59.93
2019-03-27T21:36:12.906Z,65.67
2019-03-27T21:38:43.119Z,62.60
2019-03-27T21:41:13.432Z,58.17
2019-03-27T21:43:43.659Z,55.83
2019-03-27T21:46:14.767Z,57.50
2019-03-27T21:48:45.944Z,62.93
2019-03-27T21:51:15.866Z,62.13
2019-03-27T21:53:50.553Z,54.87
2019-03-27T21:56:17.938Z,61.37
2019-03-27T21:58:48.588Z,67.67
2019-03-27T22:01:19.106Z,68.10
2019-03-27T22:03:49.062Z,60.20
2019-03-27T22:06:19.642Z,53.30
2019-03-27T22:08:50.780Z,60.13
2019-03-27T22:11:20.749Z,60.30
2019-03-27T22:13:50.746Z,61.17
2019-03-27T22:16:21.188Z,56.80
2019-03-27T22:18:51.387Z,61.07
2019-03-27T22:21:21.646Z,64.03
2019-03-27T22:23:51.494Z,56.10
2019-03-27T22:26:22.052Z,56.97
2019-03-27T22:28:51.998Z,63.10
2019-03-27T22:31:22.392Z,52.00
2019-03-27T22:33:52.307Z,59.50
2019-03-27T22:36:22.915Z,54.33
2019-03-27T22:38:53.273Z,64.27
2019-03-27T22:41:24.958Z,62.60
2019-03-27T22:43:54.913Z,55.97
2019-03-27T22:46:24.810Z,57.00
2019-03-27T22:48:55.488Z,58.33
2019-03-27T22:51:26.064Z,63.03
2019-03-27T22:53:55.903Z,60.47
2019-03-27T22:56:26.286Z,67.73
2019-03-27T22:58:57.078Z,63.50
2019-03-27T23:01:32.144Z,55.27
2019-03-27T23:04:02.465Z,58.43
2019-03-27T23:06:32.305Z,59.07
2019-03-27T23:09:02.172Z,59.30
2019-03-27T23:11:32.484Z,53.00
2019-03-27T23:14:03.289Z,55.10
2019-03-27T23:16:33.902Z,61.97
2019-03-27T23:19:03.963Z,54.13
2019-03-27T23:21:34.844Z,56.90
2019-03-27T23:24:06.770Z,59.13
2019-03-27T23:26:37.106Z,53.70
2019-03-27T23:29:07.384Z,53.27
2019-03-27T23:31:37.239Z,48.63
2019-03-27T23:34:07.076Z,52.80
2019-03-27T23:36:37.308Z,52.60
2019-03-27T23:39:10.166Z,55.27
2019-03-27T23:41:40.508Z,52.00
2019-03-27T23:44:11.209Z,53.67
2019-03-27T23:46:41.887Z,61.63
2019-03-27T23:49:11.738Z,47.53
2019-03-27T23:51:41.997Z,52.43
2019-03-27T23:54:12.334Z,50.63
2019-03-27T23:56:42.556Z,56.70
2019-03-27T23:59:12.413Z,48.53
